Time;durP1;ratioP1;P1;durP2;ratioP2;P2;SDS_P1;SDS_P2;PMS_P1;PMS_P2;Temp;Humidity;BMP_temperature;BMP_pressure;BME280_temperature;BME280_humidity;BME280_pressure;Samples;Min_cycle;Max_cycle;Signal;HPM_P1;HPM_P2
2022/11/14 00:00:36;;;;;;;20.83;13.25;;;7.70;99.90;;;;;;5108217;28;20051;-67
2022/11/14 00:03:04;;;;;;;22.13;13.02;;;7.70;99.90;;;;;;5105860;28;20027;-67
2022/11/14 00:05:30;;;;;;;16.92;11.48;;;7.70;99.90;;;;;;5111228;28;20502;-68
2022/11/14 00:07:56;;;;;;;16.48;11.40;;;7.70;99.90;;;;;;5105649;28;20027;-67
2022/11/14 00:10:21;;;;;;;16.80;11.18;;;7.70;99.90;;;;;;5110342;28;20357;-68
2022/11/14 00:12:47;;;;;;;17.98;12.02;;;7.70;99.90;;;;;;5106367;27;20032;-67
2022/11/14 00:15:13;;;;;;;19.95;13.30;;;7.70;99.90;;;;;;5107247;28;20016;-67
2022/11/14 00:17:39;;;;;;;20.63;13.05;;;7.60;99.90;;;;;;5109187;28;20030;-67
2022/11/14 00:20:07;;;;;;;17.20;11.93;;;7.70;99.90;;;;;;5107913;28;20114;-67
2022/11/14 00:22:33;;;;;;;20.85;13.02;;;7.70;99.90;;;;;;5109534;28;20035;-67
2022/11/14 00:24:59;;;;;;;18.73;13.07;;;7.70;99.90;;;;;;5112900;28;20496;-68
2022/11/14 00:27:24;;;;;;;26.00;14.55;;;7.70;99.90;;;;;;5107167;28;20067;-67
2022/11/14 00:29:51;;;;;;;21.08;13.50;;;7.60;99.90;;;;;;5106534;27;20019;-67
2022/11/14 00:32:16;;;;;;;24.15;14.73;;;7.60;99.90;;;;;;5111404;28;20050;-68
2022/11/14 00:34:42;;;;;;;26.98;14.65;;;7.60;99.90;;;;;;5110137;28;20020;-69
2022/11/14 00:37:08;;;;;;;24.08;14.68;;;7.70;99.90;;;;;;5110896;28;20024;-67
2022/11/14 00:39:34;;;;;;;21.35;14.10;;;7.60;99.90;;;;;;5105910;28;20355;-68
2022/11/14 00:41:59;;;;;;;20.52;13.98;;;7.60;99.90;;;;;;5107001;28;20039;-67
2022/11/14 00:44:25;;;;;;;19.67;12.57;;;7.50;99.90;;;;;;5099047;28;20039;-68
2022/11/14 00:46:50;;;;;;;21.65;14.27;;;7.50;99.90;;;;;;5108345;28;20024;-69
2022/11/14 00:49:16;;;;;;;17.08;12.88;;;7.30;99.90;;;;;;5104706;28;20031;-74
2022/11/14 00:51:42;;;;;;;19.17;12.48;;;7.40;99.90;;;;;;5107206;27;20376;-67
2022/11/14 00:54:07;;;;;;;20.42;13.85;;;7.40;99.90;;;;;;5107728;28;20039;-68
2022/11/14 00:56:33;;;;;;;17.90;13.13;;;7.50;99.90;;;;;;5102614;28;20034;-68
2022/11/14 00:58:59;;;;;;;19.77;13.77;;;7.40;99.90;;;;;;5103937;28;20035;-68
2022/11/14 01:01:24;;;;;;;17.60;12.65;;;7.40;99.90;;;;;;5109040;28;20376;-68
2022/11/14 01:03:51;;;;;;;23.10;14.98;;;7.40;99.90;;;;;;5106017;27;20027;-68
2022/11/14 01:06:17;;;;;;;21.77;13.55;;;7.20;99.90;;;;;;5102991;28;20059;-68
2022/11/14 01:08:43;;;;;;;19.48;12.88;;;7.20;99.90;;;;;;5105804;28;20496;-71
2022/11/14 01:11:12;;;;;;;21.13;14.05;;;7.30;99.90;;;;;;5104161;28;20035;-68
2022/11/14 01:13:40;;;;;;;20.05;13.98;;;7.20;99.90;;;;;;5109912;28;20118;-76
2022/11/14 01:16:08;;;;;;;17.98;13.50;;;7.30;99.90;;;;;;5085763;28;20388;-67
2022/11/14 01:18:34;;;;;;;22.23;13.60;;;7.30;99.90;;;;;;5107562;28;20027;-68
2022/11/14 01:21:04;;;;;;;16.90;12.77;;;7.30;99.90;;;;;;5109462;28;20110;-76
2022/11/14 01:23:30;;;;;;;22.90;12.07;;;7.30;99.90;;;;;;5111490;28;20019;-76
2022/11/14 01:26:04;;;;;;;19.42;12.70;;;7.20;99.90;;;;;;5106766;27;20535;-68
2022/11/14 01:28:30;;;;;;;18.63;13.30;;;7.10;99.90;;;;;;5102636;28;20024;-67
2022/11/14 01:31:05;;;;;;;19.77;12.80;;;7.10;99.90;;;;;;5106813;28;20369;-68
2022/11/14 01:33:32;;;;;;;23.25;13.90;;;6.90;99.90;;;;;;5101904;28;20032;-76
2022/11/14 01:36:01;;;;;;;23.30;13.45;;;6.90;99.90;;;;;;5110948;28;20052;-74
2022/11/14 01:38:27;;;;;;;19.98;13.68;;;6.80;99.90;;;;;;5106935;28;20487;-76
2022/11/14 01:40:54;;;;;;;23.90;13.07;;;6.70;99.90;;;;;;5108556;28;20089;-75
2022/11/14 01:43:25;;;;;;;24.70;13.63;;;6.70;99.90;;;;;;5107861;28;20024;-68
2022/11/14 01:46:13;;;;;;;22.88;13.30;;;6.70;99.90;;;;;;5107855;28;20075;-68
2022/11/14 01:48:44;;;;;;;26.85;15.55;;;6.80;99.90;;;;;;5105022;28;20012;-72
2022/11/14 01:51:22;;;;;;;29.17;15.82;;;6.80;99.90;;;;;;5085829;28;20380;-68
2022/11/14 01:53:51;;;;;;;24.08;14.45;;;6.80;99.90;;;;;;5110781;28;20510;-70
2022/11/14 01:56:21;;;;;;;20.48;13.25;;;6.80;99.90;;;;;;5109319;28;20051;-68
2022/11/14 01:58:57;;;;;;;21.55;14.52;;;6.80;99.90;;;;;;5106691;28;20031;-74
2022/11/14 02:01:24;;;;;;;26.13;15.32;;;6.70;99.90;;;;;;5110304;28;20024;-74
2022/11/14 02:03:52;;;;;;;23.33;14.65;;;6.70;99.90;;;;;;5101984;28;20019;-69
2022/11/14 02:06:22;;;;;;;20.33;15.00;;;6.70;99.90;;;;;;5109640;28;20051;-68
2022/11/14 02:08:49;;;;;;;22.85;14.95;;;6.60;99.90;;;;;;5110627;28;20031;-72
2022/11/14 02:11:15;;;;;;;25.48;15.50;;;6.70;99.90;;;;;;5105082;28;20065;-67
2022/11/14 02:13:41;;;;;;;20.10;13.65;;;6.70;99.90;;;;;;5101330;28;20119;-75
2022/11/14 02:16:06;;;;;;;19.35;12.20;;;6.70;99.90;;;;;;5092361;28;20468;-68
2022/11/14 02:18:33;;;;;;;20.42;11.70;;;6.70;99.90;;;;;;5101605;28;20034;-75
2022/11/14 02:20:58;;;;;;;21.25;12.70;;;6.70;99.90;;;;;;5105053;28;20045;-67
2022/11/14 02:23:30;;;;;;;21.98;12.45;;;6.70;99.90;;;;;;5110476;28;20031;-74
2022/11/14 02:25:57;;;;;;;20.02;12.10;;;6.60;99.90;;;;;;5105337;28;20047;-72
2022/11/14 02:28:23;;;;;;;20.88;12.60;;;6.70;99.90;;;;;;5106462;28;20024;-71
2022/11/14 02:30:49;;;;;;;18.38;11.98;;;6.70;99.90;;;;;;5108814;28;20028;-67
2022/11/14 02:33:16;;;;;;;21.77;12.85;;;6.60;99.90;;;;;;5111568;28;20039;-75
2022/11/14 02:35:44;;;;;;;22.20;14.07;;;6.60;99.90;;;;;;5111137;28;20030;-73
2022/11/14 02:38:10;;;;;;;18.75;12.60;;;6.50;99.90;;;;;;5110137;28;20114;-71
2022/11/14 02:40:35;;;;;;;20.13;13.80;;;6.50;99.90;;;;;;5107310;28;20111;-68
2022/11/14 02:43:01;;;;;;;19.50;12.85;;;6.50;99.90;;;;;;5090483;28;20024;-67
2022/11/14 02:45:27;;;;;;;17.90;12.15;;;6.40;99.90;;;;;;5109862;28;20024;-68
2022/11/14 02:47:52;;;;;;;22.92;14.18;;;6.40;99.90;;;;;;5110250;28;20441;-76
2022/11/14 02:50:18;;;;;;;22.08;13.38;;;6.30;99.90;;;;;;5103567;28;20019;-68
2022/11/14 02:52:44;;;;;;;16.90;12.85;;;6.40;99.90;;;;;;5099103;28;20111;-70
2022/11/14 02:55:10;;;;;;;22.60;13.35;;;6.40;99.90;;;;;;5110494;28;20464;-67
2022/11/14 02:57:35;;;;;;;19.63;12.93;;;6.40;99.90;;;;;;5107826;28;20122;-68
2022/11/14 03:00:01;;;;;;;19.10;13.32;;;6.30;99.90;;;;;;5109432;28;20098;-68
2022/11/14 03:02:27;;;;;;;18.67;12.75;;;6.40;99.90;;;;;;5110121;28;20027;-67
2022/11/14 03:04:53;;;;;;;19.63;12.18;;;6.40;99.90;;;;;;5109006;28;20476;-67
2022/11/14 03:07:18;;;;;;;16.92;12.23;;;6.20;99.90;;;;;;5107236;28;20104;-67
2022/11/14 03:09:44;;;;;;;16.95;13.20;;;6.30;99.90;;;;;;5104903;28;20030;-73
2022/11/14 03:12:10;;;;;;;18.05;12.95;;;6.30;99.90;;;;;;5109760;28;20043;-77
2022/11/14 03:14:35;;;;;;;24.13;14.55;;;6.20;99.90;;;;;;5110912;28;20455;-70
2022/11/14 03:17:01;;;;;;;21.48;14.55;;;6.10;99.90;;;;;;5102789;28;20019;-68
2022/11/14 03:19:27;;;;;;;23.02;14.07;;;6.00;99.90;;;;;;5109256;28;20062;-68
2022/11/14 03:21:52;;;;;;;24.90;15.05;;;5.90;99.90;;;;;;5107492;28;20023;-68
2022/11/14 03:24:18;;;;;;;21.33;14.55;;;5.90;99.90;;;;;;5104168;28;20061;-68
2022/11/14 03:26:44;;;;;;;21.25;13.77;;;5.90;99.90;;;;;;5110755;28;20471;-68
2022/11/14 03:29:09;;;;;;;22.25;15.18;;;6.00;99.90;;;;;;5108770;28;20031;-67
2022/11/14 03:31:35;;;;;;;21.17;13.10;;;6.10;99.90;;;;;;5109673;28;20024;-69
2022/11/14 03:34:01;;;;;;;23.52;12.55;;;6.00;99.90;;;;;;5103558;28;20056;-77
2022/11/14 03:36:26;;;;;;;18.10;11.77;;;6.10;99.90;;;;;;5108904;28;20359;-67
2022/11/14 03:38:52;;;;;;;21.17;12.10;;;6.10;99.90;;;;;;5110257;28;20201;-68
2022/11/14 03:41:18;;;;;;;15.90;11.85;;;6.10;99.90;;;;;;5106509;28;20035;-67
2022/11/14 03:43:43;;;;;;;17.40;12.00;;;6.10;99.90;;;;;;5112780;28;20020;-68
2022/11/14 03:46:09;;;;;;;19.58;12.38;;;6.10;99.90;;;;;;5109795;28;20130;-68
2022/11/14 03:48:35;;;;;;;16.90;11.77;;;6.10;99.90;;;;;;5111448;28;20055;-68
2022/11/14 03:51:00;;;;;;;19.27;12.07;;;6.10;99.90;;;;;;5106411;28;20078;-68
2022/11/14 03:53:27;;;;;;;16.45;11.50;;;6.00;99.90;;;;;;5113874;28;20027;-68
2022/11/14 03:55:53;;;;;;;17.40;12.57;;;6.00;99.90;;;;;;5113965;28;20038;-68
2022/11/14 03:58:18;;;;;;;21.77;12.68;;;6.00;99.90;;;;;;5112929;28;20023;-68
2022/11/14 04:00:44;;;;;;;21.60;12.52;;;6.00;99.90;;;;;;5112191;28;20020;-68
2022/11/14 04:03:09;;;;;;;20.60;14.45;;;5.90;99.90;;;;;;5112303;28;20080;-68
2022/11/14 04:05:35;;;;;;;22.25;13.57;;;5.90;99.90;;;;;;5105519;28;20049;-68
2022/11/14 04:08:04;;;;;;;18.55;11.63;;;5.90;99.90;;;;;;5110188;28;20114;-68
2022/11/14 04:10:30;;;;;;;17.48;11.90;;;5.90;99.90;;;;;;5091059;28;20015;-68
2022/11/14 04:12:55;;;;;;;18.88;12.75;;;5.80;99.90;;;;;;5102128;28;20032;-68
2022/11/14 04:15:21;;;;;;;17.95;11.98;;;5.80;99.90;;;;;;5099865;28;20020;-68
2022/11/14 04:17:47;;;;;;;18.08;13.23;;;5.80;99.90;;;;;;5107253;28;20067;-68
2022/11/14 04:20:13;;;;;;;20.60;14.18;;;5.80;99.90;;;;;;5110360;28;20392;-68
2022/11/14 04:22:39;;;;;;;22.17;13.07;;;5.70;99.90;;;;;;5101791;28;20492;-68
2022/11/14 04:25:06;;;;;;;21.27;14.32;;;5.60;99.90;;;;;;5103568;28;20049;-67
2022/11/14 04:27:32;;;;;;;21.50;12.68;;;5.60;99.90;;;;;;5110476;28;20589;-68
2022/11/14 04:29:57;;;;;;;20.55;12.98;;;5.50;99.90;;;;;;5109948;28;20024;-68
2022/11/14 04:32:23;;;;;;;23.52;13.70;;;5.50;99.90;;;;;;5106320;28;20073;-68
2022/11/14 04:34:48;;;;;;;18.35;12.88;;;5.40;99.90;;;;;;5109785;28;20026;-68
2022/11/14 04:37:14;;;;;;;15.93;11.38;;;5.50;99.90;;;;;;5110494;28;20034;-68
2022/11/14 04:39:40;;;;;;;18.33;11.98;;;5.30;99.90;;;;;;5104775;28;20110;-67
2022/11/14 04:42:05;;;;;;;19.17;12.57;;;5.30;99.90;;;;;;5106443;28;20469;-68
2022/11/14 04:44:31;;;;;;;22.80;12.93;;;5.10;99.90;;;;;;5108156;28;20039;-68
2022/11/14 04:46:56;;;;;;;20.17;13.07;;;5.10;99.90;;;;;;5107738;28;20049;-67
2022/11/14 04:49:22;;;;;;;20.80;13.80;;;5.10;99.90;;;;;;5096284;28;20487;-68
2022/11/14 04:51:48;;;;;;;25.55;14.85;;;5.10;99.90;;;;;;5111692;28;20023;-68
2022/11/14 04:54:14;;;;;;;23.52;13.77;;;5.20;99.90;;;;;;5104161;28;20514;-68
2022/11/14 04:56:39;;;;;;;18.40;12.88;;;5.30;99.90;;;;;;5112419;28;20020;-67
2022/11/14 04:59:05;;;;;;;16.65;11.57;;;5.30;99.90;;;;;;5110094;28;20487;-68
2022/11/14 05:01:30;;;;;;;17.85;12.02;;;5.30;99.90;;;;;;5092060;28;20039;-68
2022/11/14 05:03:56;;;;;;;18.58;11.85;;;5.40;99.90;;;;;;5109627;28;20035;-68
2022/11/14 05:06:22;;;;;;;19.92;11.45;;;5.30;99.90;;;;;;5113426;28;20144;-68
2022/11/14 05:08:47;;;;;;;21.95;12.35;;;5.30;99.90;;;;;;5111032;28;20388;-67
2022/11/14 05:11:17;;;;;;;19.27;11.32;;;5.30;99.90;;;;;;5089549;28;20106;-68
2022/11/14 05:13:43;;;;;;;19.42;13.00;;;5.30;99.90;;;;;;5110497;28;20043;-67
2022/11/14 05:16:09;;;;;;;21.17;13.80;;;5.20;99.90;;;;;;5102708;28;20019;-68
2022/11/14 05:18:35;;;;;;;21.00;12.60;;;5.20;99.90;;;;;;5111386;28;20030;-68
2022/11/14 05:21:02;;;;;;;19.63;12.93;;;5.20;99.90;;;;;;5109753;28;20039;-68
2022/11/14 05:23:28;;;;;;;22.30;12.82;;;5.20;99.90;;;;;;5111325;28;20016;-67
2022/11/14 05:26:11;;;;;;;20.05;12.23;;;5.10;99.90;;;;;;5110929;28;20536;-67
2022/11/14 05:28:36;;;;;;;22.88;14.57;;;5.00;99.90;;;;;;5110678;28;20388;-68
2022/11/14 05:31:05;;;;;;;28.02;14.52;;;5.00;99.90;;;;;;5113269;28;20016;-68
2022/11/14 05:33:30;;;;;;;24.13;13.48;;;4.90;99.90;;;;;;5113394;28;20027;-68
2022/11/14 05:36:01;;;;;;;19.88;13.10;;;4.90;99.90;;;;;;5105621;28;20073;-68
2022/11/14 05:38:27;;;;;;;18.45;12.38;;;4.90;99.90;;;;;;5105196;28;20028;-67
2022/11/14 05:40:53;;;;;;;20.27;12.77;;;5.00;99.90;;;;;;5103254;28;20349;-67
2022/11/14 05:43:18;;;;;;;20.23;11.88;;;4.90;99.90;;;;;;5111245;28;20061;-67
2022/11/14 05:45:44;;;;;;;19.77;12.48;;;5.00;99.90;;;;;;5103451;28;20357;-68
2022/11/14 05:48:10;;;;;;;18.35;12.43;;;5.00;99.90;;;;;;5104203;28;20472;-67
2022/11/14 05:50:35;;;;;;;21.63;12.82;;;5.00;99.90;;;;;;5109047;28;20023;-67
2022/11/14 05:53:01;;;;;;;18.85;12.07;;;5.00;99.90;;;;;;5102156;28;20396;-68
2022/11/14 05:55:26;;;;;;;17.83;12.20;;;5.10;99.90;;;;;;5103322;28;20106;-67
2022/11/14 05:57:52;;;;;;;21.45;13.55;;;5.10;99.90;;;;;;5109020;28;20031;-67
2022/11/14 06:00:18;;;;;;;24.40;14.88;;;5.00;99.90;;;;;;5102589;27;20024;-67
2022/11/14 06:02:45;;;;;;;22.70;14.60;;;5.00;99.90;;;;;;5104873;28;20406;-67
2022/11/14 06:05:10;;;;;;;21.45;15.35;;;5.00;99.90;;;;;;5107658;27;20028;-68
2022/11/14 06:07:37;;;;;;;19.30;13.75;;;5.10;99.90;;;;;;5109554;28;20036;-67
2022/11/14 06:10:03;;;;;;;19.52;12.70;;;5.10;99.90;;;;;;5106855;28;20509;-67
2022/11/14 06:12:31;;;;;;;15.55;10.48;;;5.10;99.90;;;;;;5105836;28;20111;-67
2022/11/14 06:14:56;;;;;;;20.08;10.95;;;5.10;99.90;;;;;;5109851;28;20020;-67
2022/11/14 06:17:22;;;;;;;14.63;9.77;;;5.10;99.90;;;;;;5099479;28;20035;-67
2022/11/14 06:19:47;;;;;;;19.27;11.10;;;5.10;99.90;;;;;;5090981;28;20031;-67
2022/11/14 06:22:13;;;;;;;21.13;11.60;;;5.10;99.90;;;;;;5110575;28;20380;-67
2022/11/14 06:24:38;;;;;;;19.35;12.35;;;5.00;99.90;;;;;;5107110;28;20027;-67
2022/11/14 06:27:04;;;;;;;19.52;12.70;;;5.10;99.90;;;;;;5100601;28;20055;-67
2022/11/14 06:29:30;;;;;;;18.63;12.32;;;5.00;99.90;;;;;;5109218;28;20031;-67
2022/11/14 06:31:55;;;;;;;16.98;10.98;;;5.00;99.90;;;;;;5102578;28;20023;-67
2022/11/14 06:34:21;;;;;;;16.38;11.50;;;5.00;99.90;;;;;;5108520;28;20037;-67
2022/11/14 06:36:46;;;;;;;21.52;11.02;;;5.00;99.90;;;;;;5104343;28;20099;-67
2022/11/14 06:39:12;;;;;;;18.88;11.75;;;5.00;99.90;;;;;;5103056;28;20036;-67
2022/11/14 06:41:38;;;;;;;16.45;11.52;;;5.00;99.90;;;;;;5105565;28;20024;-68
2022/11/14 06:44:06;;;;;;;18.58;12.55;;;5.00;99.90;;;;;;5109111;28;20418;-67
2022/11/14 06:46:31;;;;;;;16.70;11.18;;;5.00;99.90;;;;;;5108639;28;20480;-68
2022/11/14 06:48:57;;;;;;;18.27;13.00;;;5.00;99.90;;;;;;5108763;28;20023;-67
2022/11/14 06:51:22;;;;;;;18.42;12.00;;;5.00;99.90;;;;;;5105174;28;20488;-67
2022/11/14 06:53:48;;;;;;;20.08;12.05;;;5.00;99.90;;;;;;5102541;28;20043;-67
2022/11/14 06:56:16;;;;;;;18.42;12.73;;;4.90;99.90;;;;;;5103234;28;20480;-67
2022/11/14 06:58:44;;;;;;;19.92;12.75;;;5.00;99.90;;;;;;5104309;28;20020;-67
2022/11/14 07:01:18;;;;;;;19.73;11.77;;;5.00;99.90;;;;;;5099767;28;20027;-68
2022/11/14 07:03:44;;;;;;;17.35;11.60;;;4.90;99.90;;;;;;5105258;28;20035;-67
2022/11/14 07:06:12;;;;;;;19.73;12.00;;;4.90;99.90;;;;;;5106525;28;20024;-67
2022/11/14 07:08:38;;;;;;;17.00;12.68;;;4.90;99.90;;;;;;5099018;28;20038;-67
2022/11/14 07:11:09;;;;;;;21.02;13.60;;;4.90;99.90;;;;;;5106023;28;20383;-67
2022/11/14 07:13:36;;;;;;;18.25;12.75;;;4.90;99.90;;;;;;5107376;28;20227;-67
2022/11/14 07:16:02;;;;;;;20.27;13.30;;;4.90;99.90;;;;;;5106119;28;20032;-68
2022/11/14 07:18:32;;;;;;;17.52;11.98;;;4.80;99.90;;;;;;5100383;28;20024;-67
2022/11/14 07:21:04;;;;;;;20.38;12.90;;;4.80;99.90;;;;;;5105265;28;20137;-67
2022/11/14 07:23:31;;;;;;;17.70;12.02;;;4.90;99.90;;;;;;5101341;28;20052;-67
2022/11/14 07:26:07;;;;;;;18.88;12.55;;;4.90;99.90;;;;;;5103798;28;20532;-67
2022/11/14 07:28:38;;;;;;;20.80;13.20;;;4.90;99.90;;;;;;5103387;28;20412;-67
2022/11/14 07:31:12;;;;;;;25.85;13.27;;;4.80;99.90;;;;;;5085788;28;20465;-68
2022/11/14 07:33:39;;;;;;;18.58;12.48;;;4.80;99.90;;;;;;5108811;28;20023;-68
2022/11/14 07:36:05;;;;;;;22.17;13.52;;;4.80;99.90;;;;;;5101682;28;20111;-68
2022/11/14 07:38:32;;;;;;;20.15;12.30;;;4.80;99.90;;;;;;5104900;28;20027;-68
2022/11/14 07:41:09;;;;;;;17.27;11.93;;;4.80;99.90;;;;;;5105701;28;20492;-69
2022/11/14 07:43:34;;;;;;;18.38;12.00;;;4.70;99.90;;;;;;5102193;28;20114;-70
2022/11/14 07:46:06;;;;;;;19.50;12.55;;;4.60;99.90;;;;;;5109497;28;20420;-69
2022/11/14 07:48:32;;;;;;;19.13;12.35;;;4.60;99.90;;;;;;5108264;28;20012;-68
2022/11/14 07:51:03;;;;;;;25.75;14.15;;;4.70;99.90;;;;;;5106509;28;20036;-67
2022/11/14 07:53:29;;;;;;;20.63;12.10;;;4.80;99.90;;;;;;5111067;28;20039;-67
2022/11/14 07:55:56;;;;;;;21.00;12.43;;;4.80;99.90;;;;;;5103977;28;20379;-68
2022/11/14 07:58:21;;;;;;;25.30;14.60;;;4.80;99.90;;;;;;5103155;28;20062;-68
2022/11/14 08:00:47;;;;;;;74.85;29.95;;;4.80;99.90;;;;;;5105106;28;20462;-68
2022/11/14 08:03:13;;;;;;;100.97;37.38;;;4.80;99.90;;;;;;5086632;28;20042;-68
2022/11/14 08:05:38;;;;;;;47.17;20.92;;;4.80;99.90;;;;;;5107329;28;20017;-67
2022/11/14 08:08:04;;;;;;;27.65;15.60;;;4.80;99.90;;;;;;5088317;28;20122;-68
2022/11/14 08:10:30;;;;;;;18.35;11.73;;;4.80;99.90;;;;;;5104260;28;20063;-67
2022/11/14 08:13:04;;;;;;;17.25;11.77;;;4.90;99.90;;;;;;5104501;28;20035;-68
2022/11/14 08:15:30;;;;;;;20.40;11.90;;;4.90;99.90;;;;;;5105822;28;20024;-68
2022/11/14 08:17:59;;;;;;;28.63;14.35;;;4.80;99.90;;;;;;5102339;27;20017;-67
2022/11/14 08:20:26;;;;;;;24.73;14.80;;;4.80;99.90;;;;;;5106828;28;20020;-67
2022/11/14 08:22:52;;;;;;;22.23;12.98;;;4.80;99.90;;;;;;5108192;27;20567;-67
2022/11/14 08:25:19;;;;;;;22.58;13.55;;;4.80;99.90;;;;;;5105100;28;20044;-67
2022/11/14 08:27:45;;;;;;;21.52;14.13;;;4.90;99.90;;;;;;5105561;28;20542;-67
2022/11/14 08:30:11;;;;;;;24.92;15.25;;;5.00;99.90;;;;;;5105878;28;20076;-67
2022/11/14 08:32:36;;;;;;;22.58;14.73;;;4.90;99.90;;;;;;5108851;28;20055;-67
2022/11/14 08:35:02;;;;;;;25.70;14.80;;;5.00;99.90;;;;;;5108383;27;20083;-67
2022/11/14 08:37:28;;;;;;;25.92;14.15;;;5.00;99.90;;;;;;5107122;28;20024;-67
2022/11/14 08:39:53;;;;;;;22.70;14.60;;;5.00;99.90;;;;;;5109065;28;20093;-67
2022/11/14 08:42:19;;;;;;;34.17;18.77;;;5.00;99.90;;;;;;5105679;28;20094;-67
2022/11/14 08:44:45;;;;;;;28.35;16.38;;;5.10;99.90;;;;;;5104624;27;20032;-67
2022/11/14 08:47:10;;;;;;;27.95;16.27;;;5.10;99.90;;;;;;5110777;28;20605;-67
2022/11/14 08:49:36;;;;;;;22.77;15.90;;;5.20;99.90;;;;;;5107940;28;20036;-67
2022/11/14 08:52:02;;;;;;;25.90;15.93;;;5.10;99.90;;;;;;5094243;28;20023;-67
2022/11/14 08:54:28;;;;;;;22.55;15.13;;;5.10;99.90;;;;;;5104976;28;20031;-67
2022/11/14 08:56:53;;;;;;;23.15;14.60;;;5.20;99.90;;;;;;5105709;28;20023;-68
2022/11/14 08:59:19;;;;;;;25.55;16.63;;;5.30;99.90;;;;;;5107236;28;20023;-67
2022/11/14 09:01:45;;;;;;;25.13;17.00;;;5.40;99.90;;;;;;5106924;28;20090;-67
2022/11/14 09:04:10;;;;;;;28.20;19.60;;;5.50;99.90;;;;;;5108724;28;20088;-67
2022/11/14 09:06:36;;;;;;;24.05;16.88;;;5.60;99.90;;;;;;5101865;28;20018;-67
2022/11/14 09:09:02;;;;;;;22.50;14.63;;;5.70;99.90;;;;;;5103934;28;20511;-67
2022/11/14 09:11:27;;;;;;;21.08;14.38;;;5.80;99.90;;;;;;5101687;27;20016;-68
2022/11/14 09:13:53;;;;;;;21.23;14.30;;;5.90;99.90;;;;;;5104371;28;20067;-67
2022/11/14 09:16:19;;;;;;;22.67;14.60;;;5.90;99.90;;;;;;5103024;27;20130;-67
2022/11/14 09:18:44;;;;;;;24.83;15.50;;;6.00;99.90;;;;;;5107601;28;20432;-68
2022/11/14 09:21:11;;;;;;;20.77;15.18;;;6.20;99.90;;;;;;5108784;28;20033;-67
2022/11/14 09:23:37;;;;;;;21.77;14.90;;;6.20;99.90;;;;;;5106809;28;20464;-69
2022/11/14 09:26:07;;;;;;;20.58;15.50;;;6.40;99.90;;;;;;5111047;28;20023;-68
2022/11/14 09:28:33;;;;;;;24.25;16.92;;;6.40;99.90;;;;;;5100902;27;20349;-66
2022/11/14 09:31:07;;;;;;;24.60;17.02;;;6.60;99.90;;;;;;5108953;28;20030;-67
2022/11/14 09:33:33;;;;;;;22.10;15.48;;;6.70;99.90;;;;;;5103696;28;20556;-67
2022/11/14 09:36:01;;;;;;;23.38;16.48;;;6.90;99.90;;;;;;5105460;28;20019;-67
2022/11/14 09:38:27;;;;;;;23.52;14.85;;;7.00;99.90;;;;;;5108974;28;20107;-68
2022/11/14 09:41:08;;;;;;;22.92;15.57;;;7.00;99.90;;;;;;5106188;28;20123;-68
2022/11/14 09:44:07;;;;;;;21.33;14.68;;;7.20;99.90;;;;;;5103031;28;20028;-67
2022/11/14 09:46:45;;;;;;;21.30;13.32;;;7.30;99.90;;;;;;5107845;28;20022;-68
2022/11/14 09:49:39;;;;;;;21.10;14.60;;;7.40;99.90;;;;;;5108775;28;20059;-67
2022/11/14 09:52:27;;;;;;;22.20;16.90;;;7.50;99.90;;;;;;5107998;28;20038;-68
2022/11/14 09:55:00;;;;;;;23.38;14.88;;;7.60;99.90;;;;;;5106644;28;20475;-67
2022/11/14 09:57:26;;;;;;;;;;;7.70;99.90;;;;;;5107156;28;20069;-68
2022/11/14 09:59:52;;;;;;;21.15;14.07;;;7.80;99.90;;;;;;5104232;28;20305;-67
2022/11/14 10:02:32;;;;;;;20.60;13.60;;;7.90;99.90;;;;;;5109275;28;20055;-68
2022/11/14 10:05:05;;;;;;;21.38;13.60;;;8.00;99.90;;;;;;5106154;28;20575;-67
2022/11/14 10:07:56;;;;;;;25.58;14.52;;;8.20;99.90;;;;;;5097086;28;20086;-68
2022/11/14 10:10:54;;;;;;;18.05;12.95;;;8.20;99.90;;;;;;5101921;28;20028;-69
2022/11/14 10:13:32;;;;;;;22.15;13.60;;;8.20;99.90;;;;;;5103117;28;20040;-70
2022/11/14 10:16:12;;;;;;;22.38;13.52;;;8.30;99.90;;;;;;5103131;28;20073;-69
2022/11/14 10:18:41;;;;;;;18.08;12.95;;;8.40;99.90;;;;;;5107587;28;20024;-69
2022/11/14 10:21:36;;;;;;;23.20;15.45;;;8.40;99.90;;;;;;5103826;28;20028;-68
2022/11/14 10:24:24;;;;;;;20.77;15.30;;;8.50;99.90;;;;;;5107713;28;20073;-69
2022/11/14 10:27:05;;;;;;;18.48;14.00;;;8.50;99.90;;;;;;5099610;27;20112;-70
2022/11/14 10:30:04;;;;;;;22.10;14.82;;;8.60;99.90;;;;;;5104238;28;20031;-69
2022/11/14 10:32:45;;;;;;;20.13;14.27;;;8.70;99.90;;;;;;5105585;28;20027;-69
2022/11/14 10:35:45;;;;;;;22.70;14.55;;;8.70;99.90;;;;;;5104573;28;20380;-69
2022/11/14 10:38:29;;;;;;;21.98;14.27;;;8.70;99.90;;;;;;5107319;28;20028;-70
2022/11/14 10:41:01;;;;;;;21.63;14.68;;;8.80;99.90;;;;;;5107108;28;20055;-68
2022/11/14 10:43:29;;;;;;;22.42;15.48;;;8.80;99.90;;;;;;5103239;28;20065;-69
2022/11/14 10:45:55;;;;;;;21.27;14.15;;;8.90;99.90;;;;;;5099989;28;20031;-69
2022/11/14 10:48:36;;;;;;;25.77;16.33;;;8.90;99.90;;;;;;5103630;28;20348;-69
2022/11/14 10:51:18;;;;;;;22.42;15.30;;;8.90;99.90;;;;;;5105571;28;20036;-68
2022/11/14 10:53:55;;;;;;;21.30;14.47;;;9.00;99.90;;;;;;5108519;28;20036;-68
2022/11/14 10:56:21;;;;;;;20.20;14.07;;;9.10;99.90;;;;;;5090537;28;20299;-68
2022/11/14 10:58:46;;;;;;;25.38;16.63;;;9.10;99.90;;;;;;5090941;28;20020;-69
2022/11/14 11:01:39;;;;;;;21.52;16.25;;;9.20;99.90;;;;;;5105568;28;20490;-68
2022/11/14 11:04:27;;;;;;;24.45;17.35;;;9.20;99.90;;;;;;5106299;28;20028;-68
2022/11/14 11:11:28;;;;;;;21.05;14.95;;;9.30;99.90;;;;;;5103203;28;20102;-68
2022/11/14 11:12:50;;;;;;;22.25;13.13;;;9.30;99.90;;;;;;5103265;28;20078;-68
2022/11/14 11:15:27;;;;;;;21.67;15.13;;;9.30;99.90;;;;;;5105907;28;20471;-68
2022/11/14 11:17:58;;;;;;;19.25;14.13;;;9.30;99.90;;;;;;5101287;28;20032;-68
2022/11/14 11:20:36;;;;;;;22.13;15.48;;;9.30;99.90;;;;;;5105301;28;20032;-68
2022/11/14 11:23:10;;;;;;;19.10;15.00;;;9.30;99.90;;;;;;5102257;28;20028;-68
2022/11/14 11:25:38;;;;;;;18.58;13.70;;;9.30;99.90;;;;;;5104665;28;20051;-69
2022/11/14 11:28:06;;;;;;;20.33;14.73;;;9.40;99.90;;;;;;5105922;28;20103;-68
2022/11/14 11:30:33;;;;;;;21.77;14.88;;;9.40;99.90;;;;;;5108312;28;20024;-68
2022/11/14 11:33:14;;;;;;;25.40;14.57;;;9.50;99.90;;;;;;5103558;28;20024;-68
2022/11/14 11:35:41;;;;;;;22.05;13.88;;;9.50;99.90;;;;;;5105341;28;20046;-70
2022/11/14 11:38:10;;;;;;;19.77;13.18;;;9.60;99.90;;;;;;5105509;28;20019;-69
2022/11/14 11:40:36;;;;;;;20.17;13.95;;;9.50;99.90;;;;;;5100934;28;20074;-69
2022/11/14 11:43:09;;;;;;;22.58;13.85;;;9.60;99.90;;;;;;5110550;28;20019;-68
2022/11/14 11:45:36;;;;;;;22.95;13.98;;;9.50;99.90;;;;;;5108124;27;20068;-69
2022/11/14 11:48:19;;;;;;;17.40;13.18;;;9.60;99.90;;;;;;5110060;28;20023;-68
2022/11/14 11:50:46;;;;;;;20.80;12.65;;;9.60;99.90;;;;;;5105701;28;20118;-68
2022/11/14 11:53:43;;;;;;;18.65;12.13;;;9.70;99.90;;;;;;5113897;28;20043;-69
2022/11/14 11:56:16;;;;;;;15.52;11.18;;;9.70;99.90;;;;;;5105720;28;20499;-68
2022/11/14 11:58:46;;;;;;;18.30;11.27;;;9.70;99.90;;;;;;5104678;28;20016;-68
2022/11/14 12:01:13;;;;;;;18.67;12.20;;;9.80;99.90;;;;;;5102265;28;20034;-69
2022/11/14 12:03:50;;;;;;;17.92;12.50;;;9.90;99.90;;;;;;5094961;28;20047;-69
2022/11/14 12:06:23;;;;;;;16.05;11.10;;;9.90;99.90;;;;;;5106065;27;20543;-69
2022/11/14 12:09:04;;;;;;;17.30;11.40;;;9.90;99.90;;;;;;5114206;28;20023;-69
2022/11/14 12:11:33;;;;;;;13.18;9.68;;;10.00;99.90;;;;;;5107690;27;20032;-69
2022/11/14 12:14:11;;;;;;;17.67;11.38;;;10.00;99.90;;;;;;5107571;28;20134;-69
2022/11/14 12:16:56;;;;;;;16.40;11.52;;;10.00;99.90;;;;;;5104721;28;20016;-69
2022/11/14 12:19:43;;;;;;;14.55;10.30;;;10.10;99.90;;;;;;5105069;28;20668;-68
2022/11/14 12:22:54;;;;;;;18.05;10.52;;;10.10;99.90;;;;;;5105710;28;20110;-69
2022/11/14 12:25:29;;;;;;;14.68;9.95;;;10.00;99.90;;;;;;5110064;28;20062;-69
2022/11/14 12:28:16;;;;;;;15.05;10.77;;;10.00;99.90;;;;;;5113858;28;20069;-68
2022/11/14 12:30:47;;;;;;;16.83;11.63;;;10.00;99.90;;;;;;5099875;27;20342;-68
2022/11/14 12:33:32;;;;;;;16.70;10.93;;;9.90;99.90;;;;;;5106285;28;20101;-69
2022/11/14 12:36:05;;;;;;;16.35;11.35;;;9.90;99.90;;;;;;5111810;28;20061;-69
2022/11/14 12:38:42;;;;;;;20.05;14.20;;;9.90;99.90;;;;;;5101121;28;20372;-69
2022/11/14 12:41:08;;;;;;;17.60;12.98;;;9.90;99.90;;;;;;5109789;28;20023;-68
2022/11/14 12:43:38;;;;;;;21.42;12.98;;;10.00;99.90;;;;;;5089800;28;20036;-69
2022/11/14 12:46:12;;;;;;;22.50;13.07;;;10.10;99.90;;;;;;5110285;28;20024;-68
2022/11/14 12:48:40;;;;;;;19.52;13.77;;;10.00;99.90;;;;;;5106356;27;20028;-69